createdAt,value
2022-11-15T00:00:52.368Z,60.63
2022-11-15T00:04:16.059Z,60.93
2022-11-15T00:07:55.228Z,62.14
2022-11-15T00:11:17.875Z,62.60
2022-11-15T00:14:39.950Z,63.52
2022-11-15T00:18:02.797Z,63.59
2022-11-15T00:21:26.087Z,63.56
2022-11-15T00:24:48.190Z,63.08
2022-11-15T00:28:10.178Z,63.86
2022-11-15T00:31:32.391Z,63.81
2022-11-15T00:34:54.023Z,63.69
2022-11-15T00:38:18.808Z,63.69
2022-11-15T00:41:40.581Z,63.55
2022-11-15T00:45:02.577Z,63.83
2022-11-15T00:48:25.062Z,63.43
2022-11-15T00:51:48.300Z,64.15
2022-11-15T00:55:17.675Z,63.99
2022-11-15T00:58:42.466Z,63.73
2022-11-15T01:02:04.214Z,63.53
2022-11-15T01:05:26.282Z,63.09
2022-11-15T01:08:48.251Z,63.04
2022-11-15T01:12:11.772Z,63.29
2022-11-15T01:15:33.705Z,63.12
2022-11-15T01:18:56.091Z,63.14
2022-11-15T01:22:18.646Z,63.79
2022-11-15T01:25:43.691Z,63.67
2022-11-15T01:29:07.567Z,63.99
2022-11-15T01:32:30.146Z,64.04
2022-11-15T01:35:51.963Z,64.57
2022-11-15T01:39:14.133Z,64.45
2022-11-15T01:42:36.205Z,64.73
2022-11-15T01:46:05.359Z,64.90
2022-11-15T01:49:29.839Z,65.37
2022-11-15T01:52:53.934Z,65.06
2022-11-15T01:56:20.499Z,65.44
2022-11-15T01:59:46.982Z,64.74
2022-11-15T02:03:11.724Z,64.76
2022-11-15T02:06:35.701Z,65.38
2022-11-15T02:10:01.879Z,64.84
2022-11-15T02:13:26.627Z,64.31
2022-11-15T02:17:01.651Z,65.63
2022-11-15T02:20:54.261Z,66.04
2022-11-15T02:24:51.634Z,65.92
2022-11-15T02:28:46.952Z,65.27
2022-11-15T02:32:19.326Z,65.43
2022-11-15T02:35:49.714Z,65.55
2022-11-15T02:39:22.461Z,65.30
2022-11-15T02:43:13.049Z,65.17
2022-11-15T02:46:58.151Z,65.23
2022-11-15T02:50:26.744Z,66.65
2022-11-15T02:53:48.698Z,67.24
2022-11-15T02:57:19.869Z,66.30
2022-11-15T03:00:51.317Z,65.63
2022-11-15T03:04:33.003Z,65.64
2022-11-15T03:08:03.074Z,66.07
2022-11-15T03:11:26.653Z,66.37
2022-11-15T03:14:56.206Z,66.12
2022-11-15T03:18:24.422Z,65.80
2022-11-15T03:21:49.090Z,65.98
2022-11-15T03:25:18.978Z,66.10
2022-11-15T03:28:45.570Z,65.96
2022-11-15T03:32:13.626Z,65.60
2022-11-15T03:35:40.458Z,65.87
2022-11-15T03:39:07.352Z,65.40
2022-11-15T03:42:37.361Z,65.53
2022-11-15T03:46:04.895Z,65.94
2022-11-15T03:49:31.473Z,66.58
2022-11-15T03:52:57.087Z,65.76
2022-11-15T03:56:18.930Z,66.35
2022-11-15T03:59:42.669Z,66.37
2022-11-15T04:03:04.818Z,65.64
2022-11-15T04:06:27.259Z,65.51
2022-11-15T04:10:04.800Z,65.58
2022-11-15T04:13:27.413Z,65.75
2022-11-15T04:16:51.126Z,65.79
2022-11-15T04:20:34.118Z,66.29
2022-11-15T04:24:13.573Z,66.53
2022-11-15T04:27:35.635Z,67.61
2022-11-15T04:30:57.288Z,67.44
2022-11-15T04:34:23.021Z,66.58
2022-11-15T04:37:49.102Z,66.55
2022-11-15T04:41:11.762Z,67.51
2022-11-15T04:44:33.673Z,66.94
2022-11-15T04:47:56.202Z,67.82
2022-11-15T04:51:19.872Z,67.50
2022-11-15T04:54:43.127Z,67.45
2022-11-15T04:58:05.452Z,66.87
2022-11-15T05:01:27.615Z,67.18
2022-11-15T05:04:48.964Z,67.60
2022-11-15T05:08:12.565Z,67.45
2022-11-15T05:11:34.438Z,67.37
2022-11-15T05:14:57.249Z,67.38
2022-11-15T05:18:23.261Z,67.33
2022-11-15T05:21:46.009Z,67.20
2022-11-15T05:25:11.082Z,67.05
2022-11-15T05:28:34.306Z,66.94
2022-11-15T05:31:56.320Z,66.72
2022-11-15T05:35:28.078Z,66.84
2022-11-15T05:38:51.184Z,67.00
2022-11-15T05:42:16.585Z,66.99
2022-11-15T05:45:39.269Z,66.95
2022-11-15T05:49:02.482Z,67.24
2022-11-15T05:52:30.155Z,67.16
2022-11-15T05:55:53.141Z,67.81
2022-11-15T05:59:19.082Z,68.37
2022-11-15T06:02:42.157Z,67.79
2022-11-15T06:06:04.419Z,67.98
2022-11-15T06:09:26.990Z,67.67
2022-11-15T06:12:50.695Z,67.94
2022-11-15T06:16:14.930Z,68.71
2022-11-15T06:19:40.494Z,68.92
2022-11-15T06:23:05.700Z,69.35
2022-11-15T06:26:28.185Z,69.63
2022-11-15T06:29:51.056Z,69.37
2022-11-15T06:33:15.326Z,69.49
2022-11-15T06:36:38.839Z,68.93
2022-11-15T06:40:01.779Z,68.81
2022-11-15T06:43:24.864Z,68.23
2022-11-15T06:46:47.551Z,68.89
2022-11-15T06:50:14.089Z,68.81
2022-11-15T06:53:36.925Z,68.67
2022-11-15T06:57:00.010Z,68.45
2022-11-15T07:00:24.378Z,67.95
2022-11-15T07:03:47.647Z,68.01
2022-11-15T07:07:12.792Z,67.81
2022-11-15T07:10:35.633Z,67.79
2022-11-15T07:13:58.080Z,67.63
2022-11-15T07:17:22.943Z,67.66
2022-11-15T07:20:46.018Z,68.20
2022-11-15T07:24:11.113Z,67.96
2022-11-15T07:27:34.585Z,67.70
2022-11-15T07:30:57.945Z,67.93
2022-11-15T07:34:21.639Z,67.38
2022-11-15T07:37:45.910Z,67.61
2022-11-15T07:41:09.537Z,67.51
2022-11-15T07:44:33.096Z,66.91
2022-11-15T07:47:57.123Z,67.56
2022-11-15T07:51:20.677Z,67.37
2022-11-15T07:54:43.684Z,67.29
2022-11-15T07:58:10.117Z,66.49
2022-11-15T08:01:32.964Z,67.15
2022-11-15T08:04:56.135Z,66.84
2022-11-15T08:08:19.729Z,65.70
2022-11-15T08:11:43.717Z,66.33
2022-11-15T08:15:09.212Z,66.09
2022-11-15T08:18:32.354Z,65.73
2022-11-15T08:21:55.641Z,66.37
2022-11-15T08:25:19.625Z,66.19
2022-11-15T08:28:42.885Z,65.15
2022-11-15T08:32:09.010Z,64.56
2022-11-15T08:35:32.096Z,65.46
2022-11-15T08:38:55.340Z,65.31
2022-11-15T08:42:19.958Z,64.40
2022-11-15T08:45:43.613Z,64.83
2022-11-15T08:49:07.609Z,64.56
2022-11-15T08:52:30.765Z,65.17
2022-11-15T08:55:53.726Z,64.63
2022-11-15T08:59:17.263Z,65.34
2022-11-15T09:02:41.167Z,64.94
2022-11-15T09:06:06.070Z,64.54
2022-11-15T09:09:28.531Z,64.46
2022-11-15T09:12:51.540Z,64.30
2022-11-15T09:16:16.713Z,64.36
2022-11-15T09:19:39.742Z,64.10
2022-11-15T09:23:04.669Z,63.54
2022-11-15T09:26:27.830Z,63.88
2022-11-15T09:29:50.853Z,64.15
2022-11-15T09:33:17.418Z,63.83
2022-11-15T09:36:41.421Z,63.53
2022-11-15T09:40:07.174Z,63.88
2022-11-15T09:43:39.911Z,63.41
2022-11-15T09:47:26.627Z,62.65
2022-11-15T09:51:10.884Z,62.86
2022-11-15T09:54:51.840Z,62.79
2022-11-15T09:57:56.935Z,62.17
2022-11-15T10:01:05.353Z,62.46
2022-11-15T10:04:11.954Z,62.67
2022-11-15T10:07:21.262Z,62.34
2022-11-15T10:10:33.562Z,62.55
2022-11-15T10:13:47.263Z,62.02
2022-11-15T10:17:18.611Z,62.69
2022-11-15T10:20:26.235Z,62.70
2022-11-15T10:23:32.002Z,62.39
2022-11-15T10:26:36.634Z,62.96
2022-11-15T10:29:46.503Z,63.01
2022-11-15T10:32:52.098Z,63.24
2022-11-15T10:36:17.469Z,62.47
2022-11-15T10:39:22.090Z,62.09
2022-11-15T10:42:30.416Z,62.61
2022-11-15T10:45:36.722Z,62.70
2022-11-15T10:48:41.537Z,62.44
2022-11-15T10:51:49.109Z,63.15
2022-11-15T10:54:56.240Z,62.41
2022-11-15T10:58:05.827Z,62.03
2022-11-15T11:01:16.827Z,61.96
2022-11-15T11:04:20.760Z,61.76
2022-11-15T11:07:26.652Z,61.69
2022-11-15T11:10:51.770Z,61.61
2022-11-15T11:13:54.814Z,61.32
2022-11-15T11:17:07.486Z,60.76
2022-11-15T11:20:21.051Z,61.51
2022-11-15T11:23:45.576Z,60.90
2022-11-15T11:27:06.359Z,60.28
2022-11-15T11:30:17.180Z,60.91
2022-11-15T11:33:29.090Z,60.14
2022-11-15T11:36:42.094Z,60.85
2022-11-15T11:39:58.221Z,59.40
2022-11-15T11:43:13.377Z,59.52
2022-11-15T11:46:35.372Z,59.26
2022-11-15T11:49:47.001Z,60.07
2022-11-15T11:53:03.639Z,60.34
2022-11-15T11:56:17.575Z,60.26
2022-11-15T11:59:28.097Z,60.40
2022-11-15T12:02:36.732Z,60.07
2022-11-15T12:05:43.019Z,59.94
2022-11-15T12:08:52.774Z,59.74
2022-11-15T12:12:06.642Z,60.20
2022-11-15T12:15:16.819Z,59.99
2022-11-15T12:18:20.319Z,59.88
2022-11-15T12:21:37.090Z,60.04
2022-11-15T12:24:44.172Z,59.62
2022-11-15T12:27:54.782Z,60.02
2022-11-15T12:31:05.230Z,60.00
2022-11-15T12:34:34.052Z,60.15
2022-11-15T12:37:56.093Z,59.89
2022-11-15T12:41:18.090Z,60.58
2022-11-15T12:44:55.108Z,60.99
2022-11-15T12:48:37.432Z,60.51
2022-11-15T12:52:10.233Z,60.61
2022-11-15T12:55:33.035Z,60.46
2022-11-15T12:58:58.048Z,60.54
2022-11-15T13:02:03.533Z,60.28
2022-11-15T13:05:39.979Z,60.15
2022-11-15T13:08:51.917Z,60.44
2022-11-15T13:11:55.709Z,60.65
2022-11-15T13:15:00.431Z,60.39
2022-11-15T13:18:30.156Z,60.50
2022-11-15T13:21:51.166Z,60.60
2022-11-15T13:24:56.456Z,60.51
2022-11-15T13:28:06.607Z,60.51
2022-11-15T13:31:31.822Z,60.71
2022-11-15T13:34:53.145Z,60.91
2022-11-15T13:37:58.804Z,61.03
2022-11-15T13:41:21.059Z,60.62
2022-11-15T13:44:27.490Z,60.84
2022-11-15T13:47:32.616Z,60.30
2022-11-15T13:50:40.646Z,60.77
2022-11-15T13:53:48.677Z,60.58
2022-11-15T13:56:58.462Z,60.66
2022-11-15T14:00:31.602Z,61.09
2022-11-15T14:03:40.951Z,61.24
2022-11-15T14:06:51.265Z,61.54
2022-11-15T14:09:54.983Z,61.87
2022-11-15T14:13:01.493Z,62.08
2022-11-15T14:16:19.735Z,62.19
2022-11-15T14:19:39.015Z,61.72
2022-11-15T14:22:54.231Z,61.83
2022-11-15T14:25:59.787Z,61.81
2022-11-15T14:29:25.598Z,61.82
2022-11-15T14:32:30.977Z,61.57
2022-11-15T14:35:34.459Z,61.88
2022-11-15T14:38:38.216Z,61.53
2022-11-15T14:41:41.586Z,61.38
2022-11-15T14:44:46.998Z,61.34
2022-11-15T14:47:50.908Z,61.18
2022-11-15T14:50:56.759Z,61.39
2022-11-15T14:54:00.148Z,61.31
2022-11-15T14:57:03.862Z,61.39
2022-11-15T15:00:10.949Z,61.39
2022-11-15T15:03:17.322Z,61.05
2022-11-15T15:06:20.882Z,60.92
2022-11-15T15:09:24.808Z,60.91
2022-11-15T15:12:28.369Z,61.09
2022-11-15T15:15:35.612Z,61.37
2022-11-15T15:18:39.204Z,61.11
2022-11-15T15:21:43.314Z,61.72
2022-11-15T15:24:47.341Z,61.74
2022-11-15T15:27:51.486Z,61.74
2022-11-15T15:30:56.489Z,61.89
2022-11-15T15:34:00.301Z,61.98
2022-11-15T15:37:11.874Z,61.79
2022-11-15T15:40:18.471Z,61.85
2022-11-15T15:43:21.833Z,61.49
2022-11-15T15:46:27.765Z,61.67
2022-11-15T15:49:31.556Z,61.62
2022-11-15T15:52:35.747Z,61.31
2022-11-15T15:55:40.461Z,61.40
2022-11-15T15:58:44.317Z,61.17
2022-11-15T16:01:49.501Z,61.21
2022-11-15T16:04:53.474Z,61.62
2022-11-15T16:07:56.947Z,61.46
2022-11-15T16:11:01.089Z,61.59
2022-11-15T16:14:04.494Z,61.96
2022-11-15T16:17:16.968Z,62.28
2022-11-15T16:20:40.351Z,61.94
2022-11-15T16:23:44.054Z,61.28
2022-11-15T16:26:49.276Z,61.54
2022-11-15T16:29:54.747Z,61.82
2022-11-15T16:32:59.899Z,62.07
2022-11-15T16:36:05.527Z,62.03
2022-11-15T16:39:14.504Z,61.48
2022-11-15T16:42:18.493Z,61.90
2022-11-15T16:45:22.064Z,61.27
2022-11-15T16:48:29.553Z,61.05
2022-11-15T16:51:33.334Z,62.08
2022-11-15T16:54:38.390Z,61.78
2022-11-15T16:57:41.889Z,61.18
2022-11-15T17:00:46.194Z,60.69
2022-11-15T17:03:51.802Z,60.41
2022-11-15T17:06:55.454Z,60.48
2022-11-15T17:09:58.949Z,61.26
2022-11-15T17:13:02.659Z,62.38
2022-11-15T17:16:08.130Z,62.79
2022-11-15T17:19:17.808Z,62.64
2022-11-15T17:22:21.211Z,61.79
2022-11-15T17:25:43.715Z,60.54
2022-11-15T17:28:47.222Z,60.23
2022-11-15T17:31:51.943Z,60.84
2022-11-15T17:34:57.551Z,61.80
2022-11-15T17:38:01.602Z,60.41
2022-11-15T17:41:07.178Z,60.18
2022-11-15T17:44:10.995Z,60.80
2022-11-15T17:47:14.518Z,62.55
2022-11-15T17:50:38.250Z,60.60
2022-11-15T17:53:43.942Z,61.37
2022-11-15T17:56:47.664Z,61.88
2022-11-15T17:59:51.168Z,60.54
2022-11-15T18:02:55.018Z,59.84
2022-11-15T18:05:59.969Z,60.18
2022-11-15T18:09:05.381Z,59.75
2022-11-15T18:12:08.932Z,59.10
2022-11-15T18:15:13.097Z,59.00
2022-11-15T18:18:16.487Z,58.94
2022-11-15T18:21:24.304Z,59.26
2022-11-15T18:24:29.808Z,58.86
2022-11-15T18:27:34.661Z,60.29
2022-11-15T18:30:41.270Z,60.20
2022-11-15T18:33:46.037Z,61.41
2022-11-15T18:36:52.764Z,60.05
2022-11-15T18:39:56.427Z,60.46
2022-11-15T18:42:59.841Z,61.53
2022-11-15T18:46:05.220Z,61.44
2022-11-15T18:49:13.216Z,59.59
2022-11-15T18:52:18.430Z,59.47
2022-11-15T18:55:22.125Z,58.98
2022-11-15T18:58:25.837Z,60.41
2022-11-15T19:01:31.175Z,60.95
2022-11-15T19:04:35.409Z,61.12
2022-11-15T19:07:41.227Z,59.49
2022-11-15T19:10:45.091Z,60.73
2022-11-15T19:13:49.094Z,60.58
2022-11-15T19:16:54.637Z,60.49
2022-11-15T19:19:58.115Z,60.04
2022-11-15T19:23:03.437Z,59.35
2022-11-15T19:26:08.789Z,59.58
2022-11-15T19:29:13.830Z,59.85
2022-11-15T19:32:17.303Z,60.60
2022-11-15T19:35:21.489Z,60.45
2022-11-15T19:38:26.766Z,60.68
2022-11-15T19:41:30.668Z,61.17
2022-11-15T19:44:34.604Z,61.37
2022-11-15T19:47:38.411Z,62.26
2022-11-15T19:50:41.753Z,61.47
2022-11-15T19:53:47.174Z,61.54
2022-11-15T19:56:51.743Z,59.74
2022-11-15T19:59:55.659Z,60.03
2022-11-15T20:02:59.310Z,59.10
2022-11-15T20:06:04.392Z,58.25
2022-11-15T20:09:12.125Z,58.13
2022-11-15T20:12:16.265Z,58.36
2022-11-15T20:15:19.647Z,59.43
2022-11-15T20:18:24.877Z,60.07
2022-11-15T20:21:28.548Z,60.06
2022-11-15T20:24:35.491Z,59.60
2022-11-15T20:27:38.972Z,61.19
2022-11-15T20:30:45.413Z,59.75
2022-11-15T20:33:48.906Z,58.55
2022-11-15T20:36:52.967Z,58.48
2022-11-15T20:39:58.169Z,58.96
2022-11-15T20:43:02.033Z,58.72
2022-11-15T20:46:05.853Z,59.11
2022-11-15T20:49:09.697Z,59.49
2022-11-15T20:52:13.176Z,59.81
2022-11-15T20:55:18.807Z,58.67
2022-11-15T20:58:22.551Z,58.31
2022-11-15T21:01:26.804Z,58.00
2022-11-15T21:04:30.418Z,59.18
2022-11-15T21:07:34.252Z,59.43
2022-11-15T21:10:56.795Z,59.79
2022-11-15T21:14:02.923Z,60.13
2022-11-15T21:17:09.970Z,59.37
2022-11-15T21:20:15.625Z,58.71
2022-11-15T21:23:19.104Z,58.29
2022-11-15T21:26:24.320Z,59.58
2022-11-15T21:29:28.610Z,60.27
2022-11-15T21:32:32.370Z,59.55
2022-11-15T21:35:35.781Z,59.59
2022-11-15T21:38:39.503Z,59.24
2022-11-15T21:41:44.359Z,58.92
2022-11-15T21:44:48.156Z,59.80
2022-11-15T21:47:51.875Z,60.47
2022-11-15T21:50:59.468Z,60.88
2022-11-15T21:54:03.569Z,59.33
2022-11-15T21:57:08.814Z,58.46
2022-11-15T22:00:31.117Z,58.39
2022-11-15T22:03:37.159Z,59.81
2022-11-15T22:06:43.038Z,59.29
2022-11-15T22:09:49.102Z,59.84
2022-11-15T22:12:53.955Z,59.56
2022-11-15T22:15:58.325Z,58.85
2022-11-15T22:19:01.996Z,58.69
2022-11-15T22:22:05.945Z,59.75
2022-11-15T22:25:10.269Z,59.92
2022-11-15T22:28:15.840Z,60.04
2022-11-15T22:31:19.402Z,58.77
2022-11-15T22:34:23.938Z,60.31
2022-11-15T22:37:27.695Z,61.69
2022-11-15T22:40:32.148Z,61.44
2022-11-15T22:43:37.487Z,60.91
2022-11-15T22:46:41.402Z,61.69
2022-11-15T22:49:44.999Z,61.61
2022-11-15T22:52:48.863Z,62.60
2022-11-15T22:55:53.307Z,62.57
2022-11-15T22:58:58.885Z,63.31
2022-11-15T23:02:02.861Z,62.09
2022-11-15T23:05:07.809Z,62.25
2022-11-15T23:08:11.571Z,62.97
2022-11-15T23:11:33.471Z,63.57
2022-11-15T23:14:38.575Z,62.60
2022-11-15T23:17:42.997Z,63.42
2022-11-15T23:20:46.904Z,64.50
2022-11-15T23:23:49.920Z,63.75
2022-11-15T23:26:55.705Z,63.67
2022-11-15T23:30:18.459Z,63.11
2022-11-15T23:33:39.650Z,64.03
2022-11-15T23:36:43.603Z,63.98
2022-11-15T23:39:47.216Z,64.72
2022-11-15T23:42:51.620Z,63.85
2022-11-15T23:45:56.778Z,62.93
2022-11-15T23:49:01.187Z,62.81
2022-11-15T23:52:05.162Z,62.17
2022-11-15T23:55:10.615Z,61.94
2022-11-15T23:58:14.234Z,62.32
